Time;durP1;ratioP1;P1;durP2;ratioP2;P2;SDS_P1;SDS_P2;PMS_P1;PMS_P2;Temp;Humidity;BMP_temperature;BMP_pressure;BME280_temperature;BME280_humidity;BME280_pressure;Samples;Min_cycle;Max_cycle;Signal;HPM_P1;HPM_P2
2022/12/26 00:00:36;;;;;;;1.70;1.60;;;19.40;43.70;;;;;;5018227;28;20231;-60
2022/12/26 00:03:02;;;;;;;1.67;1.57;;;19.40;43.70;;;;;;5019390;28;20219;-63
2022/12/26 00:05:27;;;;;;;1.50;1.40;;;19.40;43.70;;;;;;5020543;28;20431;-62
2022/12/26 00:07:53;;;;;;;1.63;1.53;;;19.40;43.70;;;;;;5020985;28;20230;-60
2022/12/26 00:10:19;;;;;;;1.70;1.60;;;19.40;43.70;;;;;;5016485;28;20555;-58
2022/12/26 00:12:44;;;;;;;1.60;1.50;;;19.40;43.70;;;;;;5023085;28;20316;-59
2022/12/26 00:15:10;;;;;;;1.70;1.60;;;19.40;44.50;;;;;;5022552;28;20719;-60
2022/12/26 00:17:35;;;;;;;1.70;1.60;;;19.40;43.70;;;;;;5021489;28;20227;-65
2022/12/26 00:20:01;;;;;;;1.80;1.70;;;19.40;43.70;;;;;;5019267;28;20226;-60
2022/12/26 00:22:26;;;;;;;1.60;1.50;;;19.40;43.70;;;;;;5021135;28;20254;-61
2022/12/26 00:24:52;;;;;;;1.40;1.30;;;19.30;43.60;;;;;;5022167;28;20360;-58
2022/12/26 00:27:17;;;;;;;1.60;1.50;;;19.40;43.70;;;;;;5022625;28;20247;-61
2022/12/26 00:29:43;;;;;;;1.60;1.50;;;19.40;43.60;;;;;;5018986;28;20544;-62
2022/12/26 00:32:08;;;;;;;1.47;1.37;;;19.40;43.60;;;;;;5020373;28;20210;-60
2022/12/26 00:34:34;;;;;;;1.43;1.33;;;19.40;43.70;;;;;;5020528;28;20269;-59
2022/12/26 00:36:59;;;;;;;1.70;1.60;;;19.40;43.70;;;;;;5021167;28;20566;-60
2022/12/26 00:39:25;;;;;;;1.60;1.50;;;19.40;43.70;;;;;;5021284;28;20254;-60
2022/12/26 00:41:50;;;;;;;1.80;1.70;;;19.40;43.70;;;;;;5020211;28;20903;-60
2022/12/26 00:44:16;;;;;;;1.50;1.40;;;19.40;43.70;;;;;;5024079;28;20222;-59
2022/12/26 00:46:41;;;;;;;1.40;1.30;;;19.30;43.60;;;;;;5021659;28;20218;-62
2022/12/26 00:49:07;;;;;;;1.60;1.50;;;19.40;43.70;;;;;;5021111;28;20724;-60
2022/12/26 00:51:32;;;;;;;1.60;1.50;;;19.40;43.70;;;;;;5021989;28;20653;-61
2022/12/26 00:53:58;;;;;;;1.50;1.40;;;19.30;43.60;;;;;;5021589;28;20225;-59
2022/12/26 00:56:23;;;;;;;1.57;1.47;;;19.30;43.70;;;;;;5021697;28;20219;-59
2022/12/26 00:58:49;;;;;;;1.57;1.37;;;19.30;43.70;;;;;;5020685;28;20207;-59
2022/12/26 01:01:20;;;;;;;1.70;1.60;;;19.30;43.80;;;;;;5020059;28;20280;-59
2022/12/26 01:03:46;;;;;;;1.30;1.20;;;19.30;43.70;;;;;;5020794;28;20234;-60
2022/12/26 01:06:12;;;;;;;1.80;1.70;;;19.30;43.60;;;;;;5021445;28;20774;-60
2022/12/26 01:08:38;;;;;;;1.80;1.70;;;19.30;43.70;;;;;;5018162;28;20302;-58
2022/12/26 01:11:09;;;;;;;2.07;1.57;;;19.30;43.70;;;;;;5015515;28;20452;-60
2022/12/26 01:13:35;;;;;;;1.60;1.50;;;19.30;43.70;;;;;;5019137;28;20229;-61
2022/12/26 01:16:01;;;;;;;1.50;1.40;;;19.30;43.70;;;;;;5017193;28;20460;-59
2022/12/26 01:18:27;;;;;;;1.30;1.20;;;19.30;43.80;;;;;;5018899;28;20235;-61
2022/12/26 01:20:58;;;;;;;1.80;1.70;;;19.30;43.70;;;;;;5019869;28;20770;-60
2022/12/26 01:23:23;;;;;;;1.53;1.43;;;19.30;43.70;;;;;;5024627;28;20663;-61
2022/12/26 01:25:49;;;;;;;1.80;1.70;;;19.30;43.70;;;;;;5024295;28;20423;-61
2022/12/26 01:28:14;;;;;;;1.37;1.23;;;19.30;43.70;;;;;;5024743;28;20238;-60
2022/12/26 01:30:40;;;;;;;1.67;1.57;;;19.30;43.70;;;;;;5018607;28;20739;-59
2022/12/26 01:33:05;;;;;;;2.70;1.60;;;19.30;43.70;;;;;;5021727;28;20982;-59
2022/12/26 01:35:31;;;;;;;1.50;1.40;;;19.30;43.80;;;;;;5024011;28;20226;-64
2022/12/26 01:37:57;;;;;;;1.50;1.40;;;19.30;43.70;;;;;;5025463;28;20219;-62
2022/12/26 01:40:23;;;;;;;1.77;1.67;;;19.30;43.80;;;;;;5017842;28;20632;-59
2022/12/26 01:42:48;;;;;;;1.83;1.73;;;19.30;43.70;;;;;;5016297;28;20945;-59
2022/12/26 01:45:22;;;;;;;1.70;1.60;;;19.30;43.80;;;;;;5019578;28;20232;-60
2022/12/26 01:48:03;;;;;;;1.70;1.60;;;19.30;43.70;;;;;;5013883;28;20234;-62
2022/12/26 01:50:44;;;;;;;1.80;1.70;;;19.30;43.80;;;;;;5017722;28;20455;-62
2022/12/26 01:53:24;;;;;;;1.57;1.47;;;19.30;43.80;;;;;;5016017;28;22153;-60
2022/12/26 01:56:01;;;;;;;1.70;1.60;;;19.30;43.70;;;;;;5017018;28;20529;-62
2022/12/26 01:58:31;;;;;;;1.47;1.37;;;19.30;43.80;;;;;;5016631;28;20425;-59
2022/12/26 02:00:57;;;;;;;1.50;1.40;;;19.30;43.80;;;;;;5014112;28;20467;-63
2022/12/26 02:06:09;;;;;;;1.57;1.47;;;19.30;43.70;;;;;;5012748;28;20441;-60
2022/12/26 02:08:35;;;;;;;1.20;1.10;;;19.30;43.70;;;;;;5016548;28;20774;-61
2022/12/26 02:11:11;;;;;;;1.40;1.30;;;19.30;43.70;;;;;;5016896;28;20500;-59
2022/12/26 02:13:39;;;;;;;1.57;1.47;;;19.30;43.70;;;;;;5015497;28;20435;-59
2022/12/26 02:16:07;;;;;;;1.43;1.33;;;19.30;43.70;;;;;;5015174;28;20459;-63
2022/12/26 02:18:32;;;;;;;1.40;1.30;;;19.30;43.70;;;;;;5014171;28;20518;-60
2022/12/26 02:21:22;;;;;;;1.40;1.30;;;19.30;43.70;;;;;;5011583;28;20431;-63
2022/12/26 02:24:19;;;;;;;1.40;1.30;;;19.30;43.70;;;;;;5018324;28;20222;-62
2022/12/26 02:27:11;;;;;;;1.40;1.30;;;19.30;43.70;;;;;;5018254;28;20451;-61
2022/12/26 02:30:00;;;;;;;1.40;1.30;;;19.30;43.60;;;;;;5014742;28;20498;-61
2022/12/26 02:32:44;;;;;;;1.30;1.20;;;19.30;43.70;;;;;;5009787;28;20432;-65
2022/12/26 02:35:19;;;;;;;1.30;1.20;;;19.30;43.70;;;;;;5015092;28;20869;-59
2022/12/26 02:37:58;;;;;;;1.50;1.30;;;19.30;43.60;;;;;;5015078;28;20462;-62
2022/12/26 02:40:34;;;;;;;1.50;1.40;;;19.30;43.70;;;;;;5013466;28;20472;-60
2022/12/26 02:43:23;;;;;;;1.63;1.53;;;19.30;43.70;;;;;;5005707;28;20551;-60
2022/12/26 02:49:15;;;;;;;1.50;1.40;;;19.30;43.90;;;;;;5018338;28;20434;-62
2022/12/26 03:14:51;;;;;;;1.40;1.30;;;19.30;44.00;;;;;;5024486;28;20500;-60
2022/12/26 03:17:40;;;;;;;3.63;1.80;;;19.30;44.10;;;;;;5024733;28;20468;-60
2022/12/26 03:20:26;;;;;;;1.33;1.23;;;19.30;44.00;;;;;;5022805;28;20439;-60
2022/12/26 03:23:00;;;;;;;2.20;1.20;;;19.30;44.10;;;;;;5023244;28;20436;-58
2022/12/26 03:28:25;;;;;;;1.80;1.70;;;19.30;44.00;;;;;;5022920;28;20449;-63
2022/12/26 03:30:52;;;;;;;1.40;1.30;;;19.30;44.10;;;;;;5023080;28;20430;-59
2022/12/26 03:36:10;;;;;;;2.53;1.23;;;19.30;44.10;;;;;;5023129;28;20572;-58
2022/12/26 03:38:56;;;;;;;1.30;1.20;;;19.30;44.10;;;;;;5019852;28;20458;-64
2022/12/26 04:19:36;;;;;;;1.40;1.30;;;19.20;44.00;;;;;;5023297;28;20797;-58
2022/12/26 04:45:07;;;;;;;1.30;1.20;;;19.20;44.00;;;;;;5020299;28;20451;-59
2022/12/26 04:47:33;;;;;;;1.10;1.00;;;19.20;44.00;;;;;;5023255;28;20471;-60
2022/12/26 04:50:12;;;;;;;1.93;1.30;;;19.20;43.90;;;;;;5022267;28;20976;-60
2022/12/26 04:52:59;;;;;;;1.10;1.00;;;19.30;44.00;;;;;;5021938;28;20280;-58
2022/12/26 04:55:31;;;;;;;3.43;1.17;;;19.30;44.10;;;;;;5021318;28;20431;-59
2022/12/26 04:57:57;;;;;;;1.30;1.20;;;19.30;44.10;;;;;;5019916;28;20435;-64
2022/12/26 05:00:24;;;;;;;1.20;1.10;;;19.30;44.10;;;;;;5022640;28;20972;-60
2022/12/26 05:11:18;;;;;;;1.20;1.10;;;19.30;44.10;;;;;;5022348;28;20457;-63
2022/12/26 05:13:44;;;;;;;1.20;1.10;;;19.30;44.10;;;;;;5004154;28;20468;-64
2022/12/26 05:29:58;;;;;;;1.83;1.20;;;19.30;44.10;;;;;;5020331;28;20894;-64
2022/12/26 05:35:08;;;;;;;1.07;1.00;;;19.30;44.10;;;;;;5022750;28;20484;-59
2022/12/26 05:37:34;;;;;;;1.40;1.30;;;19.30;44.00;;;;;;5021954;28;20468;-63
2022/12/26 05:40:00;;;;;;;1.20;1.10;;;19.30;44.00;;;;;;5021756;28;20237;-59
2022/12/26 05:42:25;;;;;;;1.20;1.10;;;19.30;44.00;;;;;;5020245;28;20219;-59
2022/12/26 05:44:51;;;;;;;1.20;1.10;;;19.30;44.00;;;;;;5021872;28;20219;-60
2022/12/26 05:47:16;;;;;;;1.10;1.00;;;19.30;44.00;;;;;;5022460;28;20222;-58
2022/12/26 05:49:42;;;;;;;1.10;1.00;;;19.30;44.00;;;;;;5022119;28;20227;-63
2022/12/26 05:52:07;;;;;;;1.40;1.30;;;19.30;44.00;;;;;;5020392;28;20581;-58
2022/12/26 05:54:33;;;;;;;1.30;1.20;;;19.40;44.10;;;;;;5022938;28;20235;-59
2022/12/26 05:57:00;;;;;;;1.30;1.20;;;19.30;44.00;;;;;;5021899;28;20223;-58
2022/12/26 05:59:26;;;;;;;1.30;1.20;;;19.30;44.00;;;;;;5021065;28;20686;-60
2022/12/26 06:01:51;;;;;;;1.20;1.10;;;19.30;44.00;;;;;;5021185;28;20448;-63
2022/12/26 06:04:17;;;;;;;1.10;1.00;;;19.30;43.90;;;;;;5018745;28;20434;-58
2022/12/26 06:06:43;;;;;;;1.03;1.00;;;19.30;44.00;;;;;;5022621;28;20269;-60
2022/12/26 06:09:08;;;;;;;1.17;1.07;;;19.40;44.00;;;;;;5024505;28;20235;-58
2022/12/26 06:11:34;;;;;;;1.00;1.00;;;19.40;44.00;;;;;;5024210;28;20227;-59
2022/12/26 06:14:00;;;;;;;1.93;1.10;;;19.40;44.00;;;;;;5025564;28;20289;-59
2022/12/26 06:16:26;;;;;;;1.30;1.20;;;19.30;43.80;;;;;;5024659;28;20215;-61
2022/12/26 06:18:54;;;;;;;1.03;0.93;;;19.30;43.80;;;;;;5024738;28;20437;-60
2022/12/26 06:21:20;;;;;;;1.10;1.00;;;19.40;44.00;;;;;;5024641;28;20701;-60
2022/12/26 06:23:46;;;;;;;1.10;1.00;;;19.40;43.90;;;;;;5024716;28;20471;-60
2022/12/26 06:26:11;;;;;;;1.20;1.10;;;19.40;43.80;;;;;;5024967;28;20321;-62
2022/12/26 06:28:39;;;;;;;1.20;1.10;;;19.40;43.90;;;;;;5025002;28;20456;-58
2022/12/26 06:31:10;;;;;;;1.10;1.00;;;19.30;43.80;;;;;;5023744;28;20234;-61
2022/12/26 06:33:36;;;;;;;0.97;0.90;;;19.40;43.80;;;;;;5025480;28;20455;-59
2022/12/26 06:36:14;;;;;;;1.00;0.90;;;19.40;43.90;;;;;;5024792;28;20452;-60
2022/12/26 06:38:40;;;;;;;1.10;1.00;;;19.40;43.80;;;;;;5024038;28;20531;-58
2022/12/26 06:41:08;;;;;;;1.20;1.10;;;19.40;43.80;;;;;;5024276;28;20442;-59
2022/12/26 06:43:34;;;;;;;1.20;1.10;;;19.40;43.90;;;;;;5023354;28;20529;-59
2022/12/26 06:46:01;;;;;;;1.03;1.00;;;19.40;43.80;;;;;;5024630;28;20561;-59
2022/12/26 06:48:27;;;;;;;1.30;1.20;;;19.30;43.70;;;;;;5024998;28;20305;-58
2022/12/26 06:50:55;;;;;;;1.07;0.97;;;19.40;43.80;;;;;;5024421;28;20938;-62
2022/12/26 06:53:21;;;;;;;1.10;1.00;;;19.40;44.60;;;;;;5024857;28;20215;-62
2022/12/26 06:55:48;;;;;;;1.30;1.20;;;19.40;43.80;;;;;;5025726;28;20418;-63
2022/12/26 06:58:14;;;;;;;1.07;0.93;;;19.40;43.80;;;;;;5022387;28;20419;-58
2022/12/26 07:00:39;;;;;;;1.20;1.10;;;19.40;43.70;;;;;;5022764;28;20959;-59
2022/12/26 07:03:05;;;;;;;1.10;1.00;;;19.40;43.70;;;;;;5021868;28;20458;-58
2022/12/26 07:05:30;;;;;;;1.10;1.00;;;19.40;43.80;;;;;;5024571;28;20226;-60
2022/12/26 07:07:56;;;;;;;1.20;1.10;;;19.30;43.80;;;;;;5023823;28;20219;-64
2022/12/26 07:10:22;;;;;;;1.00;0.90;;;19.40;43.80;;;;;;5022414;28;20230;-61
2022/12/26 07:12:47;;;;;;;1.23;1.13;;;19.40;43.80;;;;;;5023818;28;20431;-59
2022/12/26 07:15:14;;;;;;;1.20;1.10;;;19.40;43.80;;;;;;5022957;28;20233;-59
2022/12/26 07:17:39;;;;;;;1.20;1.10;;;19.40;43.80;;;;;;5023078;28;20230;-61
2022/12/26 07:20:06;;;;;;;1.20;1.10;;;19.30;43.80;;;;;;5023187;28;20488;-60
2022/12/26 07:22:32;;;;;;;1.13;1.03;;;19.40;43.80;;;;;;5024259;28;20504;-58
2022/12/26 07:24:57;;;;;;;1.33;1.23;;;19.40;43.90;;;;;;5024002;28;20423;-61
2022/12/26 07:27:23;;;;;;;1.17;1.07;;;19.30;43.80;;;;;;5023854;28;20266;-61
2022/12/26 07:29:48;;;;;;;1.00;0.90;;;19.40;43.80;;;;;;5025798;28;20708;-61
2022/12/26 07:32:14;;;;;;;1.20;1.10;;;19.40;43.90;;;;;;5022405;28;20268;-60
2022/12/26 07:34:41;;;;;;;1.03;0.93;;;19.40;43.80;;;;;;5023082;28;20812;-59
2022/12/26 07:37:07;;;;;;;1.13;1.03;;;19.40;43.80;;;;;;5023955;28;20586;-58
2022/12/26 07:39:32;;;;;;;0.83;0.83;;;19.40;43.80;;;;;;5023629;28;20472;-62
2022/12/26 07:41:58;;;;;;;1.00;1.00;;;19.40;43.70;;;;;;5010278;28;21512;-63
2022/12/26 07:44:28;;;;;;;1.10;1.00;;;19.40;43.80;;;;;;5006648;28;20667;-59
2022/12/26 07:46:55;;;;;;;0.90;0.90;;;19.40;43.80;;;;;;5016751;28;20318;-60
2022/12/26 07:49:21;;;;;;;0.93;0.90;;;19.40;43.70;;;;;;5024892;28;20460;-61
2022/12/26 07:51:46;;;;;;;1.10;1.00;;;19.40;43.70;;;;;;5022943;28;20459;-59
2022/12/26 07:54:12;;;;;;;0.90;0.90;;;19.40;43.70;;;;;;5006197;28;20280;-59
2022/12/26 07:56:38;;;;;;;1.30;1.20;;;19.40;43.70;;;;;;5022574;28;20211;-60
2022/12/26 07:59:04;;;;;;;1.17;1.07;;;19.40;43.80;;;;;;5022855;28;20219;-60
2022/12/26 08:01:30;;;;;;;1.20;1.10;;;19.40;43.80;;;;;;5022674;28;20488;-59
2022/12/26 08:03:55;;;;;;;1.03;0.90;;;19.40;43.70;;;;;;5023881;28;20215;-59
2022/12/26 08:06:21;;;;;;;1.00;0.90;;;19.40;43.70;;;;;;5023321;28;20773;-61
2022/12/26 08:08:46;;;;;;;1.20;0.90;;;19.40;43.70;;;;;;5023097;28;20218;-60
2022/12/26 08:11:15;;;;;;;1.00;0.90;;;19.40;43.60;;;;;;5019802;28;20522;-58
2022/12/26 08:13:40;;;;;;;1.10;1.00;;;19.40;43.70;;;;;;5023040;28;20592;-59
2022/12/26 08:16:08;;;;;;;1.00;1.00;;;19.40;43.70;;;;;;5022128;28;20903;-59
2022/12/26 08:18:34;;;;;;;0.93;0.93;;;19.40;43.70;;;;;;5022809;28;20214;-62
2022/12/26 08:21:00;;;;;;;1.03;0.93;;;19.40;43.70;;;;;;5022247;28;20438;-59
2022/12/26 08:23:25;;;;;;;0.90;0.90;;;19.40;43.70;;;;;;5023546;28;20452;-60
2022/12/26 08:25:51;;;;;;;1.00;0.90;;;19.40;43.80;;;;;;5024314;28;20678;-61
2022/12/26 08:28:16;;;;;;;1.13;1.03;;;19.40;43.80;;;;;;5024071;28;20246;-62
2022/12/26 08:30:42;;;;;;;1.10;1.00;;;19.40;43.70;;;;;;5022317;28;20534;-59
2022/12/26 08:33:09;;;;;;;0.80;0.80;;;19.40;43.70;;;;;;5024601;28;20613;-58
2022/12/26 08:35:38;;;;;;;1.30;1.00;;;19.40;43.70;;;;;;5022900;28;20310;-60
2022/12/26 08:38:05;;;;;;;0.90;0.90;;;19.40;43.80;;;;;;5022313;28;20423;-61
2022/12/26 08:40:30;;;;;;;0.90;0.90;;;19.40;43.70;;;;;;5022114;28;20468;-59
2022/12/26 08:42:56;;;;;;;1.10;1.00;;;19.40;43.70;;;;;;5021570;28;20819;-58
2022/12/26 08:45:22;;;;;;;0.93;0.90;;;19.40;43.70;;;;;;5022410;28;20280;-61
2022/12/26 08:47:48;;;;;;;1.13;1.03;;;19.40;43.70;;;;;;5023967;28;20226;-65
2022/12/26 08:50:15;;;;;;;0.83;0.83;;;19.40;43.70;;;;;;5022932;28;20490;-59
2022/12/26 08:52:40;;;;;;;0.80;0.80;;;19.40;43.70;;;;;;5021305;28;20246;-59
2022/12/26 08:55:06;;;;;;;1.00;0.90;;;19.40;43.70;;;;;;5022796;28;20484;-59
2022/12/26 08:57:32;;;;;;;0.90;0.90;;;19.40;43.70;;;;;;5021384;28;20223;-64
2022/12/26 08:59:57;;;;;;;1.10;1.00;;;19.40;43.80;;;;;;5022091;28;20241;-62
2022/12/26 09:02:24;;;;;;;1.03;0.93;;;19.40;43.70;;;;;;5021551;28;20222;-63
2022/12/26 09:04:50;;;;;;;1.53;0.90;;;19.40;43.80;;;;;;5022909;28;20702;-58
2022/12/26 09:07:16;;;;;;;0.87;0.87;;;19.40;43.80;;;;;;5023376;28;20418;-58
2022/12/26 09:09:41;;;;;;;1.10;1.00;;;19.40;43.70;;;;;;5022484;28;20234;-61
2022/12/26 09:12:07;;;;;;;1.00;0.90;;;19.40;43.70;;;;;;5022021;28;20240;-59
2022/12/26 09:14:32;;;;;;;1.00;0.90;;;19.40;43.70;;;;;;5022197;28;20720;-58
2022/12/26 09:16:58;;;;;;;0.90;0.90;;;19.40;43.70;;;;;;5022233;28;20217;-59
2022/12/26 09:19:28;;;;;;;0.80;0.80;;;19.40;43.70;;;;;;5022618;28;20206;-58
2022/12/26 09:22:49;;;;;;;0.70;0.70;;;19.40;43.70;;;;;;5023391;28;20219;-59
2022/12/26 09:24:39;;;;;;;1.00;0.90;;;19.40;43.80;;;;;;5022027;28;20460;-59
2022/12/26 09:27:05;;;;;;;0.90;0.90;;;19.40;43.70;;;;;;5023080;28;21058;-58
2022/12/26 09:29:30;;;;;;;1.00;0.90;;;19.40;43.80;;;;;;5021604;28;20236;-58
2022/12/26 09:31:56;;;;;;;0.90;0.90;;;19.40;43.70;;;;;;5022679;28;20215;-60
2022/12/26 09:34:21;;;;;;;1.10;1.00;;;19.40;43.70;;;;;;5023498;28;20759;-63
2022/12/26 09:36:47;;;;;;;0.80;0.70;;;19.40;43.70;;;;;;5023241;28;20219;-60
2022/12/26 09:39:12;;;;;;;0.70;0.70;;;19.40;43.70;;;;;;5023307;28;20325;-59
2022/12/26 09:42:07;;;;;;;0.97;0.97;;;19.40;43.70;;;;;;5022288;28;20702;-58
2022/12/26 09:44:56;;;;;;;1.00;0.90;;;19.40;43.60;;;;;;5025230;28;20935;-61
2022/12/26 09:47:44;;;;;;;1.00;0.90;;;19.40;43.70;;;;;;5024549;28;20527;-59
2022/12/26 09:50:13;;;;;;;0.80;0.80;;;19.40;43.70;;;;;;5024062;28;20926;-59
2022/12/26 09:52:41;;;;;;;1.37;0.70;;;19.40;43.80;;;;;;5026540;28;20993;-58
2022/12/26 09:55:17;;;;;;;0.80;0.80;;;19.40;43.70;;;;;;5027239;28;20959;-62
2022/12/26 09:57:46;;;;;;;0.80;0.77;;;19.40;43.70;;;;;;5023911;28;20447;-59
2022/12/26 10:00:26;;;;;;;0.80;0.80;;;19.40;43.70;;;;;;5024462;28;20462;-59
2022/12/26 10:02:55;;;;;;;0.87;0.80;;;19.40;43.70;;;;;;5025909;28;20902;-59
2022/12/26 10:05:23;;;;;;;0.80;0.80;;;19.40;43.70;;;;;;5025002;28;20951;-61
2022/12/26 10:08:00;;;;;;;0.80;0.80;;;19.40;43.70;;;;;;5008779;28;20854;-59
2022/12/26 10:10:34;;;;;;;1.00;0.90;;;19.40;43.70;;;;;;5025850;28;20487;-60
2022/12/26 10:13:03;;;;;;;1.00;0.90;;;19.40;43.70;;;;;;5024403;28;21010;-59
2022/12/26 10:15:28;;;;;;;0.70;0.70;;;19.40;43.70;;;;;;5024574;28;20437;-60
2022/12/26 10:17:54;;;;;;;0.70;0.70;;;19.40;43.70;;;;;;5024470;28;20429;-58
2022/12/26 10:20:42;;;;;;;0.80;0.80;;;19.30;43.60;;;;;;5026742;28;20242;-63
2022/12/26 10:23:38;;;;;;;1.20;1.10;;;19.30;43.60;;;;;;5022790;28;20579;-58
2022/12/26 10:26:16;;;;;;;1.00;0.90;;;19.30;43.60;;;;;;5023881;28;20442;-58
2022/12/26 10:28:45;;;;;;;0.70;0.70;;;19.40;43.70;;;;;;5025058;28;20418;-60
2022/12/26 10:31:20;;;;;;;0.90;0.80;;;19.40;43.70;;;;;;5024838;28;20446;-61
2022/12/26 10:33:55;;;;;;;0.90;0.70;;;19.30;43.70;;;;;;5025073;28;20949;-62
2022/12/26 10:36:34;;;;;;;1.10;1.00;;;19.40;43.70;;;;;;5025356;28;20464;-60
2022/12/26 10:39:03;;;;;;;0.80;0.80;;;19.40;43.70;;;;;;5023895;28;20452;-59
2022/12/26 10:41:39;;;;;;;0.87;0.87;;;19.40;43.60;;;;;;5022199;28;20443;-59
2022/12/26 10:44:04;;;;;;;1.00;0.90;;;19.40;43.70;;;;;;5023931;28;20434;-58
2022/12/26 10:47:09;;;;;;;0.70;0.70;;;19.30;43.50;;;;;;5026340;28;20441;-59
2022/12/26 10:49:34;;;;;;;1.00;0.90;;;19.40;43.60;;;;;;5025963;28;20221;-61
2022/12/26 10:52:01;;;;;;;0.83;0.83;;;19.40;43.60;;;;;;5024892;28;20782;-61
2022/12/26 10:54:28;;;;;;;0.80;0.80;;;19.40;43.70;;;;;;5024394;28;20316;-59
2022/12/26 10:56:56;;;;;;;0.80;0.73;;;19.30;43.60;;;;;;5022024;28;20447;-62
2022/12/26 10:59:35;;;;;;;0.77;0.60;;;19.30;43.50;;;;;;5023460;28;20444;-61
2022/12/26 11:02:22;;;;;;;0.87;0.87;;;19.40;43.60;;;;;;5024936;28;20482;-58
2022/12/26 11:05:14;;;;;;;0.80;0.80;;;19.30;43.60;;;;;;5025437;28;20419;-58
2022/12/26 11:08:03;;;;;;;0.77;0.70;;;19.40;43.60;;;;;;5023886;28;20471;-59
2022/12/26 11:10:29;;;;;;;0.87;0.87;;;19.30;43.60;;;;;;5009747;28;21067;-58
2022/12/26 11:12:59;;;;;;;0.80;0.80;;;19.30;43.60;;;;;;5023834;28;20452;-59
2022/12/26 11:15:33;;;;;;;0.80;0.80;;;19.40;43.60;;;;;;5023017;28;20246;-59
2022/12/26 11:18:21;;;;;;;0.73;0.70;;;19.40;43.60;;;;;;5023864;28;20452;-58
2022/12/26 11:20:48;;;;;;;1.77;0.70;;;19.40;43.60;;;;;;5024458;28;20513;-59
2022/12/26 11:23:30;;;;;;;0.80;0.80;;;19.40;43.60;;;;;;5024880;28;20885;-59
2022/12/26 11:25:59;;;;;;;0.70;0.70;;;19.40;43.60;;;;;;5025520;28;20467;-60
2022/12/26 11:28:34;;;;;;;0.80;0.70;;;19.40;43.70;;;;;;5023524;28;20550;-60
2022/12/26 11:31:05;;;;;;;0.70;0.70;;;19.40;43.60;;;;;;5022852;28;20464;-58
2022/12/26 11:33:43;;;;;;;0.70;0.70;;;19.40;43.60;;;;;;5024839;28;20427;-65
2022/12/26 11:36:14;;;;;;;0.77;0.70;;;19.40;43.60;;;;;;5023528;28;20480;-61
2022/12/26 11:38:52;;;;;;;0.90;0.80;;;19.40;43.60;;;;;;4999130;28;20780;-59
2022/12/26 11:41:33;;;;;;;0.90;0.90;;;19.40;43.60;;;;;;5022064;28;20466;-59
2022/12/26 11:44:11;;;;;;;1.00;0.90;;;19.40;43.60;;;;;;5021969;28;20463;-58
2022/12/26 11:46:47;;;;;;;0.80;0.80;;;19.40;43.60;;;;;;5021328;28;20460;-62
2022/12/26 11:49:33;;;;;;;0.90;0.80;;;19.40;43.60;;;;;;5023505;28;20811;-58
2022/12/26 11:52:02;;;;;;;0.70;0.70;;;19.40;43.50;;;;;;5022539;28;20468;-61
2022/12/26 11:54:35;;;;;;;0.90;0.80;;;19.40;43.50;;;;;;5025154;28;20848;-58
2022/12/26 11:57:09;;;;;;;0.77;0.77;;;19.40;43.50;;;;;;5021844;28;20543;-58
2022/12/26 11:59:35;;;;;;;1.47;1.20;;;19.40;43.50;;;;;;5022193;28;20523;-59
2022/12/26 12:02:25;;;;;;;0.80;0.80;;;19.40;43.50;;;;;;5021913;28;20427;-61
2022/12/26 12:04:54;;;;;;;0.80;0.77;;;19.40;43.40;;;;;;5021934;28;20659;-62
2022/12/26 12:07:44;;;;;;;1.00;0.90;;;19.40;43.50;;;;;;5024386;28;20448;-62
2022/12/26 12:10:41;;;;;;;0.80;0.80;;;19.40;43.40;;;;;;5022705;28;20884;-62
2022/12/26 12:13:20;;;;;;;0.90;0.80;;;19.40;43.40;;;;;;5022375;28;21034;-59
2022/12/26 12:15:49;;;;;;;0.80;0.80;;;19.40;43.50;;;;;;5021171;28;20460;-60
2022/12/26 12:18:31;;;;;;;0.80;0.80;;;19.40;43.50;;;;;;5022476;28;20452;-60
2022/12/26 12:21:17;;;;;;;0.90;0.80;;;19.40;43.40;;;;;;5021623;28;20468;-59
2022/12/26 12:23:54;;;;;;;0.87;0.70;;;19.40;43.50;;;;;;5021825;28;20448;-61
2022/12/26 12:26:41;;;;;;;0.90;0.70;;;19.40;43.40;;;;;;5023788;28;20434;-61
2022/12/26 12:29:31;;;;;;;0.87;0.80;;;19.40;43.40;;;;;;5020802;28;20466;-61
2022/12/26 12:32:07;;;;;;;0.70;0.70;;;19.40;43.40;;;;;;5022446;28;20935;-61
2022/12/26 12:34:36;;;;;;;0.90;0.80;;;19.40;44.20;;;;;;5022847;28;20422;-59
2022/12/26 12:37:37;;;;;;;0.70;0.70;;;19.40;43.50;;;;;;5022239;28;20895;-61
2022/12/26 12:40:32;;;;;;;0.70;0.67;;;19.40;43.40;;;;;;5021292;28;20470;-65
2022/12/26 12:43:25;;;;;;;0.70;0.70;;;19.40;43.50;;;;;;5023037;28;20450;-62
2022/12/26 12:46:26;;;;;;;1.07;0.70;;;19.40;43.50;;;;;;5021520;28;20455;-59
2022/12/26 12:49:01;;;;;;;0.87;0.70;;;19.40;43.50;;;;;;5022565;28;20446;-59
2022/12/26 12:51:49;;;;;;;0.73;0.70;;;19.40;43.60;;;;;;5022199;28;20458;-58
2022/12/26 12:54:45;;;;;;;0.80;0.80;;;19.40;43.50;;;;;;5023395;28;20429;-59
2022/12/26 12:57:24;;;;;;;0.80;0.80;;;19.40;43.50;;;;;;5017467;28;21199;-59
2022/12/26 13:00:14;;;;;;;0.80;0.70;;;19.40;43.50;;;;;;5020982;28;21045;-59
2022/12/26 13:03:02;;;;;;;0.70;0.70;;;19.40;43.60;;;;;;5022091;28;20934;-59
2022/12/26 13:05:43;;;;;;;0.83;0.73;;;19.40;43.50;;;;;;5021739;28;20914;-60
2022/12/26 13:08:19;;;;;;;0.63;0.63;;;19.40;43.50;;;;;;5021821;28;20463;-59
2022/12/26 13:11:11;;;;;;;0.80;0.80;;;19.40;43.60;;;;;;5022998;28;20831;-60
2022/12/26 13:13:44;;;;;;;0.73;0.73;;;19.40;43.50;;;;;;5022574;28;20804;-65
2022/12/26 13:16:23;;;;;;;0.87;0.87;;;19.40;43.60;;;;;;5022627;28;20467;-60
2022/12/26 13:18:58;;;;;;;0.70;0.60;;;19.40;43.50;;;;;;5028198;28;20450;-64
2022/12/26 13:21:25;;;;;;;0.80;0.70;;;19.40;43.50;;;;;;5026365;28;20463;-60
2022/12/26 13:26:57;;;;;;;0.77;0.60;;;19.40;43.50;;;;;;5026581;28;20494;-61
2022/12/26 13:29:41;;;;;;;0.83;0.77;;;19.40;43.50;;;;;;5026035;28;20463;-60
2022/12/26 13:32:28;;;;;;;0.60;0.60;;;19.40;43.50;;;;;;5025884;28;20529;-58
2022/12/26 13:34:56;;;;;;;0.70;0.60;;;19.40;43.50;;;;;;5025398;28;20542;-61
2022/12/26 13:37:37;;;;;;;0.83;0.70;;;19.40;43.50;;;;;;5027169;28;20897;-59
2022/12/26 13:40:11;;;;;;;0.73;0.60;;;19.40;43.50;;;;;;5026467;28;20948;-59
2022/12/26 13:45:41;;;;;;;0.70;0.70;;;19.40;43.50;;;;;;5024811;28;20421;-62
2022/12/26 13:48:16;;;;;;;0.97;0.80;;;19.40;43.50;;;;;;5025279;28;20426;-59
2022/12/26 13:50:50;;;;;;;0.93;0.83;;;19.40;43.50;;;;;;5025498;28;20460;-63
2022/12/26 13:53:26;;;;;;;0.70;0.63;;;19.40;43.50;;;;;;5025674;28;20472;-58
2022/12/26 13:56:03;;;;;;;0.80;0.67;;;19.40;43.50;;;;;;5026027;28;20947;-59
2022/12/26 13:59:05;;;;;;;0.80;0.73;;;19.40;43.50;;;;;;5021958;28;20559;-65
2022/12/26 14:01:37;;;;;;;0.70;0.60;;;19.40;43.50;;;;;;5024252;28;20489;-59
2022/12/26 14:04:21;;;;;;;0.80;0.70;;;19.40;43.50;;;;;;5021297;28;20423;-58
2022/12/26 14:07:16;;;;;;;0.83;0.63;;;19.40;43.40;;;;;;5025234;28;20912;-58
2022/12/26 14:10:10;;;;;;;0.70;0.70;;;19.40;43.40;;;;;;5023574;28;20459;-60
2022/12/26 14:12:59;;;;;;;0.70;0.60;;;19.40;43.40;;;;;;5024887;28;20503;-64
2022/12/26 14:15:52;;;;;;;0.90;0.70;;;19.40;43.40;;;;;;5024503;28;20467;-61
2022/12/26 14:18:34;;;;;;;0.70;0.70;;;19.40;43.50;;;;;;5025926;28;20440;-58
2022/12/26 14:21:21;;;;;;;0.80;0.70;;;19.40;43.40;;;;;;5023139;28;20694;-59
2022/12/26 14:24:10;;;;;;;1.00;0.70;;;19.40;43.40;;;;;;5024059;28;20463;-60
2022/12/26 14:26:54;;;;;;;0.60;0.60;;;19.40;43.50;;;;;;5024050;28;21025;-59
2022/12/26 14:29:31;;;;;;;0.90;0.90;;;19.40;43.40;;;;;;5025129;28;20836;-59
2022/12/26 14:32:24;;;;;;;0.80;0.70;;;19.40;43.40;;;;;;5023514;28;20418;-58
2022/12/26 14:35:17;;;;;;;0.70;0.60;;;19.40;43.40;;;;;;5024933;28;20974;-59
2022/12/26 14:37:58;;;;;;;1.10;0.77;;;19.40;43.40;;;;;;5022964;28;20821;-60
2022/12/26 14:40:28;;;;;;;0.77;0.70;;;19.40;43.40;;;;;;5023104;28;20460;-61
2022/12/26 14:43:09;;;;;;;0.80;0.80;;;19.40;43.50;;;;;;5022539;28;20463;-63
2022/12/26 14:45:38;;;;;;;0.70;0.60;;;19.40;43.40;;;;;;5022424;28;20456;-62
2022/12/26 14:48:16;;;;;;;0.70;0.67;;;19.40;43.40;;;;;;5024137;28;20893;-61
2022/12/26 14:51:03;;;;;;;0.70;0.70;;;19.30;43.30;;;;;;5023789;28;20406;-64
2022/12/26 14:53:33;;;;;;;0.67;0.60;;;19.30;43.30;;;;;;5024491;28;20561;-59
2022/12/26 14:56:13;;;;;;;0.70;0.70;;;19.30;43.30;;;;;;5024282;28;20946;-62
2022/12/26 14:58:44;;;;;;;0.70;0.60;;;19.40;43.40;;;;;;5023606;28;20510;-59
2022/12/26 15:01:19;;;;;;;0.80;0.70;;;19.30;43.30;;;;;;5025216;28;20500;-60
2022/12/26 15:04:21;;;;;;;0.73;0.70;;;19.40;43.50;;;;;;5020622;28;20547;-58
2022/12/26 15:07:01;;;;;;;0.80;0.70;;;19.40;43.50;;;;;;5023986;28;20485;-59
2022/12/26 15:10:09;;;;;;;1.10;0.70;;;19.30;43.40;;;;;;5022859;28;20455;-59
2022/12/26 15:13:03;;;;;;;0.70;0.70;;;19.30;43.30;;;;;;5022027;28;20442;-62
2022/12/26 15:15:38;;;;;;;0.70;0.70;;;19.30;43.40;;;;;;5023042;28;20498;-60
2022/12/26 15:18:41;;;;;;;0.90;0.60;;;19.30;43.30;;;;;;5023772;28;21026;-60
2022/12/26 15:21:25;;;;;;;0.80;0.80;;;19.30;43.40;;;;;;5024460;28;20459;-58
2022/12/26 15:24:03;;;;;;;0.77;0.70;;;19.30;43.50;;;;;;5027578;28;20479;-61